createdAt,value
2017-09-05T00:00:24.274Z,78.10
2017-09-05T00:02:51.775Z,79.10
2017-09-05T00:05:19.238Z,81.80
2017-09-05T00:07:57.604Z,81.70
2017-09-05T00:10:26.032Z,80.20
2017-09-05T00:12:54.039Z,79.40
2017-09-05T00:15:26.281Z,80.40
2017-09-05T00:17:53.760Z,79.50
2017-09-05T00:20:21.227Z,80.50
2017-09-05T00:22:48.719Z,80.00
2017-09-05T00:25:16.200Z,82.70
2017-09-05T00:27:43.696Z,83.10
2017-09-05T00:30:11.183Z,83.80
2017-09-05T00:32:38.695Z,84.40
2017-09-05T00:35:06.186Z,84.50
2017-09-05T00:37:33.659Z,81.40
2017-09-05T00:40:01.159Z,81.50
2017-09-05T00:42:28.650Z,81.20
2017-09-05T00:44:56.129Z,82.90
2017-09-05T00:47:23.607Z,83.20
2017-09-05T00:49:51.117Z,82.70
2017-09-05T00:52:18.583Z,82.80
2017-09-05T00:54:46.054Z,83.80
2017-09-05T00:57:13.552Z,84.30
2017-09-05T00:59:41.036Z,84.50
2017-09-05T01:02:08.538Z,85.50
2017-09-05T01:04:36.000Z,83.60
2017-09-05T01:07:03.491Z,85.00
2017-09-05T01:09:31.719Z,84.60
2017-09-05T01:11:59.219Z,84.60
2017-09-05T01:14:27.501Z,85.40
2017-09-05T01:16:54.983Z,85.30
2017-09-05T01:19:22.484Z,84.30
2017-09-05T01:21:49.964Z,83.40
2017-09-05T01:24:17.450Z,82.50
2017-09-05T01:26:45.719Z,85.60
2017-09-05T01:29:13.944Z,86.60
2017-09-05T01:31:41.443Z,86.50
2017-09-05T01:34:08.911Z,85.90
2017-09-05T01:36:36.466Z,86.20
2017-09-05T01:39:03.935Z,87.20
2017-09-05T01:41:31.424Z,88.00
2017-09-05T01:43:58.932Z,88.10
2017-09-05T01:46:26.394Z,88.30
2017-09-05T01:48:53.906Z,87.50
2017-09-05T01:51:21.378Z,87.70
2017-09-05T01:53:48.850Z,87.40
2017-09-05T01:56:16.340Z,86.80
2017-09-05T01:58:43.827Z,85.90
2017-09-05T02:01:11.352Z,86.40
2017-09-05T02:03:38.812Z,86.90
2017-09-05T02:06:06.309Z,87.50
2017-09-05T02:08:33.828Z,87.80
2017-09-05T02:11:01.318Z,88.40
2017-09-05T02:13:28.807Z,87.60
2017-09-05T02:15:56.292Z,87.30
2017-09-05T02:18:23.778Z,89.00
2017-09-05T02:20:52.043Z,88.10
2017-09-05T02:23:19.561Z,88.00
2017-09-05T02:25:47.044Z,88.40
2017-09-05T02:28:14.519Z,88.80
2017-09-05T02:30:42.028Z,88.20
2017-09-05T02:33:09.482Z,88.10
2017-09-05T02:35:36.967Z,87.90
2017-09-05T02:38:04.463Z,88.70
2017-09-05T02:40:31.951Z,88.30
2017-09-05T02:42:59.438Z,87.80
2017-09-05T02:45:26.904Z,87.40
2017-09-05T02:47:54.391Z,89.50
2017-09-05T02:50:21.885Z,90.40
2017-09-05T02:52:49.342Z,90.50
2017-09-05T02:55:16.832Z,90.50
2017-09-05T02:57:44.330Z,90.30
2017-09-05T03:00:11.831Z,90.50
2017-09-05T03:02:39.319Z,90.40
2017-09-05T03:05:06.775Z,90.50
2017-09-05T03:07:34.933Z,90.10
2017-09-05T03:10:02.390Z,90.00
2017-09-05T03:12:29.891Z,90.00
2017-09-05T03:14:58.114Z,90.30
2017-09-05T03:17:25.668Z,90.30
2017-09-05T03:19:53.143Z,90.40
2017-09-05T03:22:20.638Z,90.10
2017-09-05T03:24:48.115Z,90.00
2017-09-05T03:27:15.581Z,89.70
2017-09-05T03:29:43.075Z,88.70
2017-09-05T03:32:10.590Z,88.70
2017-09-05T03:34:38.048Z,89.30
2017-09-05T03:37:05.556Z,89.80
2017-09-05T03:39:33.015Z,88.90
2017-09-05T03:42:00.518Z,88.30
2017-09-05T03:44:27.982Z,89.00
2017-09-05T03:46:55.451Z,89.90
2017-09-05T03:49:22.955Z,89.90
2017-09-05T03:51:50.462Z,90.00
2017-09-05T03:54:17.919Z,89.80
2017-09-05T03:56:45.423Z,90.00
2017-09-05T03:59:12.907Z,90.10
2017-09-05T04:01:40.406Z,90.30
2017-09-05T04:04:07.887Z,90.20
2017-09-05T04:06:35.360Z,89.70
2017-09-05T04:09:02.848Z,89.40
2017-09-05T04:11:30.950Z,89.50
2017-09-05T04:13:58.439Z,89.10
2017-09-05T04:16:25.930Z,89.60
2017-09-05T04:18:53.415Z,89.80
2017-09-05T04:21:20.940Z,89.80
2017-09-05T04:23:49.327Z,89.70
2017-09-05T04:26:17.236Z,89.00
2017-09-05T04:28:44.722Z,89.50
2017-09-05T04:31:12.208Z,89.90
2017-09-05T04:33:39.676Z,89.70
2017-09-05T04:36:07.175Z,89.80
2017-09-05T04:38:34.654Z,90.00
2017-09-05T04:41:02.135Z,90.00
2017-09-05T04:43:29.627Z,90.20
2017-09-05T04:45:57.095Z,90.40
2017-09-05T04:48:24.606Z,90.30
2017-09-05T04:50:52.102Z,90.00
2017-09-05T04:53:19.586Z,90.20
2017-09-05T04:55:47.082Z,90.20
2017-09-05T04:58:14.542Z,90.30
2017-09-05T05:00:42.012Z,90.40
2017-09-05T05:03:09.499Z,90.50
2017-09-05T05:05:36.967Z,90.50
2017-09-05T05:08:05.458Z,90.40
2017-09-05T05:10:32.943Z,90.50
2017-09-05T05:13:00.426Z,90.30
2017-09-05T05:15:27.918Z,90.00
2017-09-05T05:17:55.447Z,90.50
2017-09-05T05:20:22.915Z,90.40
2017-09-05T05:22:50.410Z,90.60
2017-09-05T05:25:17.916Z,90.60
2017-09-05T05:27:45.383Z,90.70
2017-09-05T05:30:12.887Z,90.80
2017-09-05T05:32:40.371Z,90.90
2017-09-05T05:35:07.874Z,90.80
2017-09-05T05:37:35.339Z,90.90
2017-09-05T05:40:02.847Z,91.00
2017-09-05T05:42:30.345Z,91.10
2017-09-05T05:44:57.815Z,91.10
2017-09-05T05:47:25.295Z,90.90
2017-09-05T05:49:52.830Z,90.90
2017-09-05T05:52:20.291Z,91.00
2017-09-05T05:54:47.783Z,91.30
2017-09-05T05:57:15.269Z,91.20
2017-09-05T05:59:42.772Z,90.90
2017-09-05T06:02:10.310Z,90.80
2017-09-05T06:04:37.772Z,91.00
2017-09-05T06:07:05.272Z,91.00
2017-09-05T06:09:32.736Z,90.80
2017-09-05T06:12:00.235Z,90.70
2017-09-05T06:14:27.696Z,90.90
2017-09-05T06:16:55.193Z,90.90
2017-09-05T06:19:22.678Z,90.70
2017-09-05T06:21:50.193Z,90.50
2017-09-05T06:24:17.665Z,90.20
2017-09-05T06:26:45.174Z,90.90
2017-09-05T06:29:12.690Z,90.70
2017-09-05T06:31:40.155Z,90.60
2017-09-05T06:34:07.657Z,90.80
2017-09-05T06:36:35.143Z,91.10
2017-09-05T06:39:02.654Z,90.90
2017-09-05T06:41:30.151Z,90.60
2017-09-05T06:43:57.658Z,90.40
2017-09-05T06:46:25.123Z,90.50
2017-09-05T06:48:52.600Z,90.60
2017-09-05T06:51:20.111Z,90.10
2017-09-05T06:53:47.580Z,90.50
2017-09-05T06:56:15.059Z,90.80
2017-09-05T06:58:42.544Z,90.50
2017-09-05T07:01:10.024Z,90.70
2017-09-05T07:03:37.515Z,90.40
2017-09-05T07:06:05.014Z,88.70
2017-09-05T07:08:32.481Z,87.30
2017-09-05T07:10:59.991Z,87.80
2017-09-05T07:13:27.511Z,88.40
2017-09-05T07:15:54.989Z,88.80
2017-09-05T07:18:22.498Z,89.60
2017-09-05T07:20:49.972Z,88.20
2017-09-05T07:23:17.482Z,88.20
2017-09-05T07:25:44.992Z,88.90
2017-09-05T07:28:12.493Z,88.50
2017-09-05T07:30:40.015Z,88.50
2017-09-05T07:33:07.470Z,89.80
2017-09-05T07:35:34.948Z,88.30
2017-09-05T07:38:02.438Z,87.50
2017-09-05T07:40:29.919Z,87.40
2017-09-05T07:42:57.429Z,86.50
2017-09-05T07:45:24.918Z,87.20
2017-09-05T07:47:52.388Z,88.20
2017-09-05T07:50:19.855Z,86.00
2017-09-05T07:52:47.400Z,86.00
2017-09-05T07:55:14.861Z,86.60
2017-09-05T07:57:42.339Z,87.10
2017-09-05T08:00:09.837Z,87.40
2017-09-05T08:02:37.327Z,87.50
2017-09-05T08:05:04.850Z,87.50
2017-09-05T08:07:32.312Z,87.00
2017-09-05T08:09:59.793Z,85.10
2017-09-05T08:12:27.284Z,86.20
2017-09-05T08:14:54.759Z,84.60
2017-09-05T08:17:22.270Z,84.60
2017-09-05T08:19:49.757Z,85.40
2017-09-05T08:22:17.232Z,86.50
2017-09-05T08:24:44.720Z,82.40
2017-09-05T08:27:12.209Z,84.90
2017-09-05T08:29:39.719Z,82.40
2017-09-05T08:32:07.199Z,81.80
2017-09-05T08:34:34.751Z,83.20
2017-09-05T08:37:02.244Z,81.30
2017-09-05T08:39:29.731Z,85.50
2017-09-05T08:41:57.300Z,81.60
2017-09-05T08:44:24.780Z,79.20
2017-09-05T08:46:52.292Z,79.10
2017-09-05T08:49:21.026Z,78.80
2017-09-05T08:51:48.486Z,78.00
2017-09-05T08:54:15.999Z,74.70
2017-09-05T08:56:43.476Z,74.90
2017-09-05T08:59:10.956Z,75.10
2017-09-05T09:01:38.436Z,77.80
2017-09-05T09:04:05.931Z,73.10
2017-09-05T09:06:33.426Z,72.90
2017-09-05T09:09:00.930Z,73.00
2017-09-05T09:11:28.418Z,69.70
2017-09-05T09:13:55.899Z,67.30
2017-09-05T09:16:23.404Z,67.50
2017-09-05T09:18:50.918Z,67.10
2017-09-05T09:21:18.382Z,67.60
2017-09-05T09:23:45.880Z,65.90
2017-09-05T09:26:13.359Z,66.60
2017-09-05T09:28:40.850Z,66.10
2017-09-05T09:31:08.320Z,67.40
2017-09-05T09:33:35.826Z,66.30
2017-09-05T09:36:03.292Z,65.20
2017-09-05T09:38:30.768Z,64.20
2017-09-05T09:40:58.274Z,65.50
2017-09-05T09:43:25.767Z,66.50
2017-09-05T09:45:53.255Z,63.00
2017-09-05T09:48:20.749Z,63.00
2017-09-05T09:50:48.247Z,62.40
2017-09-05T09:53:15.749Z,63.40
2017-09-05T09:55:43.280Z,63.30
2017-09-05T09:58:10.739Z,63.50
2017-09-05T10:00:38.240Z,62.40
2017-09-05T10:03:05.745Z,61.70
2017-09-05T10:05:33.964Z,61.50
2017-09-05T10:08:01.447Z,61.80
2017-09-05T10:10:28.936Z,61.70
2017-09-05T10:12:56.383Z,62.40
2017-09-05T10:15:23.919Z,60.90
2017-09-05T10:17:51.416Z,61.30
2017-09-05T10:20:18.915Z,60.60
2017-09-05T10:22:46.410Z,60.60
2017-09-05T10:25:13.894Z,60.90
2017-09-05T10:27:41.483Z,60.20
2017-09-05T10:30:08.944Z,60.50
2017-09-05T10:32:36.411Z,60.50
2017-09-05T10:35:03.908Z,60.30
2017-09-05T10:37:31.399Z,60.60
2017-09-05T10:39:58.925Z,60.20
2017-09-05T10:42:26.388Z,60.20
2017-09-05T10:44:53.880Z,60.30
2017-09-05T10:47:21.367Z,60.30
2017-09-05T10:49:48.882Z,60.80
2017-09-05T10:52:16.678Z,60.10
2017-09-05T10:54:44.965Z,60.30
2017-09-05T10:57:12.447Z,59.20
2017-09-05T10:59:39.917Z,59.60
2017-09-05T11:02:07.448Z,60.10
2017-09-05T11:04:34.920Z,60.00
2017-09-05T11:07:02.407Z,59.50
2017-09-05T11:09:29.896Z,60.00
2017-09-05T11:11:57.395Z,57.70
2017-09-05T11:14:24.887Z,57.00
2017-09-05T11:16:52.388Z,58.50
2017-09-05T11:19:19.896Z,60.10
2017-09-05T11:21:47.404Z,60.20
2017-09-05T11:24:14.888Z,58.60
2017-09-05T11:26:42.370Z,58.80
2017-09-05T11:29:09.860Z,55.80
2017-09-05T11:31:37.340Z,56.30
2017-09-05T11:34:04.848Z,57.00
2017-09-05T11:36:32.348Z,58.70
2017-09-05T11:38:59.829Z,55.10
2017-09-05T11:41:27.348Z,56.90
2017-09-05T11:43:54.838Z,56.40
2017-09-05T11:46:22.299Z,58.30
2017-09-05T11:48:49.782Z,57.60
2017-09-05T11:51:17.280Z,55.20
2017-09-05T11:53:44.795Z,56.60
2017-09-05T11:56:12.279Z,56.90
2017-09-05T11:58:39.760Z,55.50
2017-09-05T12:01:07.267Z,54.40
2017-09-05T12:03:34.731Z,54.00
2017-09-05T12:06:02.199Z,56.80
2017-09-05T12:08:29.684Z,54.80
2017-09-05T12:10:57.214Z,53.80
2017-09-05T12:13:24.674Z,55.10
2017-09-05T12:15:52.158Z,53.20
2017-09-05T12:18:19.645Z,52.90
2017-09-05T12:20:47.108Z,53.30
2017-09-05T12:23:14.607Z,52.10
2017-09-05T12:25:42.100Z,52.80
2017-09-05T12:28:09.598Z,54.20
2017-09-05T12:30:37.067Z,54.10
2017-09-05T12:33:04.577Z,51.90
2017-09-05T12:35:32.081Z,51.50
2017-09-05T12:38:00.302Z,50.60
2017-09-05T12:40:27.809Z,50.60
2017-09-05T12:42:55.316Z,50.90
2017-09-05T12:45:22.809Z,51.20
2017-09-05T12:47:50.275Z,48.50
2017-09-05T12:50:17.763Z,51.20
2017-09-05T12:52:45.248Z,50.80
2017-09-05T12:55:12.772Z,49.80
2017-09-05T12:57:40.247Z,49.00
2017-09-05T13:00:07.749Z,48.50
2017-09-05T13:02:35.224Z,49.50
2017-09-05T13:05:02.724Z,50.40
2017-09-05T13:07:30.198Z,50.50
2017-09-05T13:09:57.678Z,50.60
2017-09-05T13:12:25.179Z,49.50
2017-09-05T13:14:53.406Z,47.80
2017-09-05T13:17:20.921Z,47.80
2017-09-05T13:19:48.424Z,50.10
2017-09-05T13:22:15.887Z,48.60
2017-09-05T13:24:43.364Z,47.50
2017-09-05T13:27:10.875Z,48.30
2017-09-05T13:29:38.368Z,47.40
2017-09-05T13:32:05.867Z,48.80
2017-09-05T13:34:33.386Z,48.50
2017-09-05T13:37:00.851Z,48.20
2017-09-05T13:39:28.323Z,48.50
2017-09-05T13:41:55.820Z,47.10
2017-09-05T13:44:23.284Z,47.90
2017-09-05T13:46:50.806Z,49.10
2017-09-05T13:49:18.287Z,46.40
2017-09-05T13:51:45.784Z,46.80
2017-09-05T13:54:13.260Z,47.50
2017-09-05T13:56:40.747Z,47.40
2017-09-05T13:59:08.255Z,45.70
2017-09-05T14:01:35.779Z,46.10
2017-09-05T14:04:03.272Z,46.40
2017-09-05T14:06:30.747Z,46.60
2017-09-05T14:08:58.253Z,46.70
2017-09-05T14:11:25.741Z,46.20
2017-09-05T14:13:53.227Z,45.70
2017-09-05T14:16:20.720Z,44.40
2017-09-05T14:18:48.180Z,44.80
2017-09-05T14:21:15.732Z,45.90
2017-09-05T14:23:43.183Z,46.50
2017-09-05T14:26:11.866Z,44.80
2017-09-05T14:28:39.331Z,44.80
2017-09-05T14:31:06.814Z,44.20
2017-09-05T14:33:34.324Z,44.10
2017-09-05T14:36:01.787Z,44.20
2017-09-05T14:38:29.251Z,44.90
2017-09-05T14:40:56.795Z,44.10
2017-09-05T14:43:24.299Z,43.50
2017-09-05T14:45:51.803Z,44.00
2017-09-05T14:48:19.271Z,43.50
2017-09-05T14:50:46.763Z,43.30
2017-09-05T14:53:14.284Z,43.20
2017-09-05T14:55:41.805Z,43.10
2017-09-05T14:58:09.291Z,44.00
2017-09-05T15:00:36.753Z,44.90
2017-09-05T15:03:04.289Z,44.00
2017-09-05T15:05:31.756Z,44.40
2017-09-05T15:07:59.260Z,43.60
2017-09-05T15:10:26.727Z,44.20
2017-09-05T15:12:54.987Z,42.70
2017-09-05T15:15:22.480Z,42.70
2017-09-05T15:17:50.755Z,43.60
2017-09-05T15:20:18.288Z,43.40
2017-09-05T15:22:45.750Z,43.00
2017-09-05T15:25:13.311Z,42.40
2017-09-05T15:27:40.812Z,42.90
2017-09-05T15:30:08.269Z,42.60
2017-09-05T15:32:35.791Z,42.90
2017-09-05T15:35:03.311Z,42.90
2017-09-05T15:37:30.769Z,43.40
2017-09-05T15:39:58.252Z,43.70
2017-09-05T15:42:25.712Z,43.50
2017-09-05T15:44:53.194Z,44.00
2017-09-05T15:47:20.784Z,43.90
2017-09-05T15:49:48.311Z,43.70
2017-09-05T15:52:15.802Z,42.70
2017-09-05T15:54:43.288Z,42.20
2017-09-05T15:57:10.781Z,42.50
2017-09-05T15:59:41.700Z,43.10
2017-09-05T16:02:09.214Z,43.10
2017-09-05T16:04:36.704Z,42.80
2017-09-05T16:07:04.191Z,43.00
2017-09-05T16:09:31.699Z,43.80
2017-09-05T16:11:59.167Z,43.90
2017-09-05T16:14:26.651Z,43.80
2017-09-05T16:16:54.140Z,43.30
2017-09-05T16:19:21.661Z,44.00
2017-09-05T16:21:49.139Z,43.70
2017-09-05T16:24:16.615Z,43.10
2017-09-05T16:26:44.099Z,42.80
2017-09-05T16:29:11.578Z,43.30
2017-09-05T16:31:39.055Z,43.60
2017-09-05T16:34:06.547Z,43.30
2017-09-05T16:36:34.958Z,42.60
2017-09-05T16:39:02.469Z,42.60
2017-09-05T16:41:29.926Z,42.50
2017-09-05T16:43:57.390Z,42.90
2017-09-05T16:46:24.876Z,43.50
2017-09-05T16:48:52.345Z,46.40
2017-09-05T16:51:19.847Z,48.90
2017-09-05T16:53:47.309Z,50.80
2017-09-05T16:56:14.799Z,51.30
2017-09-05T16:58:42.302Z,52.50
2017-09-05T17:01:09.775Z,52.10
2017-09-05T17:03:37.271Z,52.80
2017-09-05T17:06:04.743Z,55.40
2017-09-05T17:08:32.230Z,55.60
2017-09-05T17:10:59.739Z,55.90
2017-09-05T17:13:27.219Z,58.20
2017-09-05T17:15:54.711Z,60.20
2017-09-05T17:18:22.199Z,61.10
2017-09-05T17:20:49.701Z,61.90
2017-09-05T17:23:17.212Z,62.10
2017-09-05T17:25:44.670Z,62.60
2017-09-05T17:28:12.198Z,62.90
2017-09-05T17:30:39.666Z,63.60
2017-09-05T17:33:07.178Z,64.90
2017-09-05T17:35:35.423Z,65.20
2017-09-05T17:38:02.913Z,65.10
2017-09-05T17:40:30.419Z,65.90
2017-09-05T17:42:57.911Z,66.30
2017-09-05T17:45:25.428Z,66.70
2017-09-05T17:47:52.894Z,67.50
2017-09-05T17:50:20.382Z,67.20
2017-09-05T17:52:47.870Z,66.50
2017-09-05T17:55:16.164Z,67.10
2017-09-05T17:57:43.665Z,67.00
2017-09-05T18:00:11.134Z,67.00
2017-09-05T18:02:38.639Z,67.70
2017-09-05T18:05:06.104Z,68.60
2017-09-05T18:07:33.576Z,69.40
2017-09-05T18:10:01.106Z,70.10
2017-09-05T18:12:28.580Z,70.00
2017-09-05T18:14:56.108Z,69.40
2017-09-05T18:17:24.384Z,69.90
2017-09-05T18:19:51.882Z,69.80
2017-09-05T18:22:19.384Z,70.10
2017-09-05T18:24:46.876Z,70.30
2017-09-05T18:27:14.379Z,71.30
2017-09-05T18:29:41.996Z,72.20
2017-09-05T18:32:09.673Z,73.10
2017-09-05T18:34:37.313Z,73.70
2017-09-05T18:37:04.894Z,74.20
2017-09-05T18:39:32.479Z,74.60
2017-09-05T18:42:00.094Z,75.00
2017-09-05T18:44:27.791Z,75.00
2017-09-05T18:46:55.676Z,74.10
2017-09-05T18:49:23.512Z,73.30
2017-09-05T18:51:52.032Z,72.90
2017-09-05T18:54:19.862Z,72.00
2017-09-05T18:56:47.730Z,72.80
2017-09-05T18:59:15.609Z,73.30
2017-09-05T19:01:43.575Z,74.50
2017-09-05T19:04:11.443Z,75.30
2017-09-05T19:06:39.646Z,76.10
2017-09-05T19:09:08.194Z,76.90
2017-09-05T19:11:35.801Z,76.70
2017-09-05T19:14:03.374Z,77.40
2017-09-05T19:16:30.887Z,78.10
2017-09-05T19:18:58.396Z,79.70
2017-09-05T19:21:25.996Z,77.90
2017-09-05T19:23:53.473Z,75.20
2017-09-05T19:26:20.940Z,73.70
2017-09-05T19:28:48.499Z,72.80
2017-09-05T19:31:15.965Z,73.20
2017-09-05T19:33:43.420Z,75.60
2017-09-05T19:36:10.916Z,75.30
2017-09-05T19:38:38.399Z,74.10
2017-09-05T19:41:05.879Z,73.90
2017-09-05T19:43:33.355Z,73.20
2017-09-05T19:46:00.871Z,73.60
2017-09-05T19:48:28.349Z,73.30
2017-09-05T19:50:56.278Z,73.20
2017-09-05T19:53:23.768Z,73.40
2017-09-05T19:55:51.233Z,73.20
2017-09-05T19:58:18.732Z,76.10
2017-09-05T20:00:46.206Z,78.40
2017-09-05T20:03:13.708Z,77.80
2017-09-05T20:05:41.179Z,75.30
2017-09-05T20:08:08.639Z,77.80
2017-09-05T20:10:36.155Z,79.50
2017-09-05T20:13:03.616Z,78.10
2017-09-05T20:15:31.115Z,77.30
2017-09-05T20:17:58.584Z,77.10
2017-09-05T20:20:26.059Z,75.80
2017-09-05T20:22:53.556Z,75.10
2017-09-05T20:25:21.024Z,74.60
2017-09-05T20:27:48.507Z,75.90
2017-09-05T20:30:16.020Z,79.10
2017-09-05T20:32:43.509Z,80.20
2017-09-05T20:35:11.182Z,81.10
2017-09-05T20:37:38.683Z,79.60
2017-09-05T20:40:06.152Z,77.10
2017-09-05T20:42:34.404Z,75.60
2017-09-05T20:45:01.898Z,75.40
2017-09-05T20:47:29.361Z,75.30
2017-09-05T20:49:56.868Z,75.20
2017-09-05T20:52:24.339Z,76.70
2017-09-05T20:54:51.822Z,77.60
2017-09-05T20:57:19.284Z,76.40
2017-09-05T20:59:47.508Z,77.60
2017-09-05T21:02:15.007Z,77.40
2017-09-05T21:04:42.468Z,78.20
2017-09-05T21:07:09.967Z,76.90
2017-09-05T21:09:37.452Z,76.40
2017-09-05T21:12:04.959Z,79.10
2017-09-05T21:14:32.417Z,81.60
2017-09-05T21:16:59.923Z,80.60
2017-09-05T21:19:27.402Z,80.20
2017-09-05T21:21:54.896Z,80.70
2017-09-05T21:24:22.386Z,82.50
2017-09-05T21:26:49.879Z,83.10
2017-09-05T21:29:17.371Z,83.30
2017-09-05T21:31:44.844Z,82.20
2017-09-05T21:34:12.304Z,80.50
2017-09-05T21:36:39.803Z,82.00
2017-09-05T21:39:07.278Z,81.40
2017-09-05T21:41:34.797Z,80.50
2017-09-05T21:44:02.298Z,79.90
2017-09-05T21:46:29.800Z,79.30
2017-09-05T21:48:57.317Z,79.70
2017-09-05T21:51:24.796Z,79.20
2017-09-05T21:53:52.290Z,79.00
2017-09-05T21:56:19.764Z,79.20
2017-09-05T21:58:47.250Z,79.20
2017-09-05T22:01:14.738Z,78.80
2017-09-05T22:03:42.246Z,79.50
2017-09-05T22:06:09.720Z,80.40
2017-09-05T22:08:37.220Z,78.70
2017-09-05T22:11:04.686Z,80.60
2017-09-05T22:13:32.180Z,79.60
2017-09-05T22:15:59.640Z,79.60
2017-09-05T22:18:32.936Z,80.00
2017-09-05T22:21:06.215Z,83.50
2017-09-05T22:23:33.714Z,84.90
2017-09-05T22:29:10.012Z,82.60
2017-09-05T22:31:37.490Z,82.80
2017-09-05T22:34:05.019Z,81.30
2017-09-05T22:36:32.468Z,81.00
2017-09-05T22:38:59.931Z,83.10
2017-09-05T22:41:27.451Z,82.80
2017-09-05T22:43:54.918Z,81.60
2017-09-05T22:46:22.395Z,82.60
2017-09-05T22:48:49.887Z,84.70
2017-09-05T22:51:17.343Z,83.10
2017-09-05T22:53:44.880Z,85.10
2017-09-05T22:56:12.332Z,84.50
2017-09-05T22:58:39.796Z,85.00
2017-09-05T23:01:07.297Z,85.10
2017-09-05T23:03:34.759Z,84.60
2017-09-05T23:06:02.258Z,85.20
2017-09-05T23:08:29.745Z,83.20
2017-09-05T23:10:57.235Z,83.00
2017-09-05T23:13:24.724Z,82.10
2017-09-05T23:15:52.199Z,81.40
2017-09-05T23:18:19.679Z,83.00
2017-09-05T23:20:47.146Z,84.00
2017-09-05T23:23:14.630Z,82.20
2017-09-05T23:25:42.139Z,85.60
2017-09-05T23:28:09.615Z,84.80
2017-09-05T23:30:37.083Z,82.30
2017-09-05T23:33:04.602Z,81.90
2017-09-05T23:35:32.095Z,81.50
2017-09-05T23:37:59.568Z,82.60
2017-09-05T23:40:27.049Z,85.10
2017-09-05T23:42:54.539Z,87.20
2017-09-05T23:45:21.994Z,87.90
2017-09-05T23:47:49.489Z,87.40
2017-09-05T23:50:16.980Z,87.40
2017-09-05T23:52:44.456Z,88.00
2017-09-05T23:55:11.966Z,86.90
2017-09-05T23:57:39.434Z,85.20
